• Join FlightAware (Why Join?)
  • Login
  • US Flag 
10:47PM EDT


 

Airport Tracker/Info


-or-


 

Live Flight TrackerFlight Track Log ✈ N589H ✈ 16-Jan-2014 ✈ KPIE - KILN

Flight Track Log - Related Links

Times and Time Zones

All times are in EST time to prevent confusion due to time zone crossing. See the N589H flight status page for this flight to view local times or setup timezone preferences in your user account.

Time Position Orientation Groundspeed Altitude Reporting Facility
EST Latitude Longitude Course Direction KTS MPH feet Rate Location/Type
01:23PM 27.9333 -82.6833 344° North 156 180 400  Level Tampa TRACON
01:24PM 27.9833 -82.7000 344° North 197 227 1,700 1,440 Climbing Tampa TRACON
01:25PM 28.0333 -82.7167 344° North 207 238 3,600 1,860 Climbing Tampa TRACON
01:27PM 28.1519 -82.7303 354° North 184 212 7,600 1,740 Climbing Jacksonville Center
01:28PM 28.2125 -82.7278 North 195 224 9,300 1,500 Climbing Jacksonville Center
01:29PM 28.2772 -82.7275 360° North 210 242 10,600 1,380 Climbing Jacksonville Center
01:30PM 28.3439 -82.7322 356° North 223 257 12,100 1,500 Climbing Jacksonville Center
01:31PM 28.4106 -82.7392 355° North 234 269 13,600 1,500 Climbing Jacksonville Center
01:32PM 28.4794 -82.7439 357° North 239 275 15,100 1,500 Climbing Jacksonville Center
01:33PM 28.5483 -82.7508 355° North 239 275 16,600 1,380 Climbing Jacksonville Center
01:34PM 28.6153 -82.7578 355° North 239 275 17,900 1,380 Climbing Jacksonville Center
01:35PM 28.6842 -82.7647 355° North 239 275 19,400 1,440 Climbing Jacksonville Center
01:36PM 28.7467 -82.7672 358° North 239 275 20,800 1,260 Climbing Jacksonville Center
01:37PM 28.8178 -82.7717 357° North 244 281 22,000 780 Climbing Jacksonville Center
01:38PM 28.8992 -82.7811 354° North 265 305 22,400 600 Climbing Jacksonville Center
01:39PM 28.9825 -82.7858 357° North 280 322 23,300 900 Climbing Jacksonville Center
01:40PM 29.0661 -82.7953 354° North 293 337 24,300 1,020 Climbing Jacksonville Center
01:41PM 29.1517 -82.8022 356° North 298 343 25,400 1,020 Climbing Jacksonville Center
01:42PM 29.2394 -82.8092 356° North 303 349 26,400 960 Climbing Jacksonville Center
01:43PM 29.3269 -82.8164 356° North 309 356 27,400 1,020 Climbing Jacksonville Center
01:44PM 29.4125 -82.8233 356° North 309 356 28,500 1,020 Climbing Jacksonville Center
01:45PM 29.5003 -82.8331 354° North 309 356 29,500 720 Climbing Jacksonville Center
01:46PM 29.5881 -82.8400 356° North 315 362 30,000 240 Climbing Jacksonville Center
01:47PM 29.6819 -82.8494 355° North 315 362 30,000  Level Jacksonville Center
01:48PM 29.7800 -82.8542 358° North 331 381 30,000  Level Jacksonville Center
01:49PM 29.8803 -82.8639 355° North 348 400 30,000  Level Jacksonville Center
01:50PM 29.9847 -82.8733 356° North 362 417 30,000  Level Jacksonville Center
01:51PM 30.0994 -82.8806 357° North 372 428 30,000  Level Jacksonville Center
01:52PM 30.2017 -82.8903 355° North 372 428 30,000  Level Jacksonville Center
01:53PM 30.3061 -82.9022 354° North 372 428 30,000  Level Jacksonville Center
01:54PM 30.4106 -82.9094 357° North 367 422 30,000  Level Jacksonville Center
01:55PM 30.5150 -82.9192 355° North 367 422 30,000  Level Jacksonville Center
01:56PM 30.6172 -82.9289 355° North 367 422 30,000  Level Jacksonville Center
01:57PM 30.7217 -82.9386 355° North 367 422 30,000  Level Jacksonville Center
01:58PM 30.8261 -82.9483 355° North 367 422 30,000  Level Jacksonville Center
01:59PM 30.9283 -82.9581 355° North 367 422 30,000  Level Jacksonville Center
02:00PM 31.0306 -82.9678 355° North 367 422 30,000  Level Jacksonville Center
02:01PM 31.1350 -82.9775 355° North 367 422 30,000  Level Jacksonville Center
02:02PM 31.2394 -82.9850 356° North 367 422 30,000  Level Jacksonville Center
02:06PM 31.6150 -83.0194 356° North 369 425 30,000  Level Atlanta Center
02:07PM 31.7217 -83.0306 355° North 369 425 30,000  Level Atlanta Center
02:08PM 31.8261 -83.0392 356° North 369 425 30,000  Level Atlanta Center
02:09PM 31.9325 -83.0503 355° North 369 425 30,000  Level Atlanta Center
02:10PM 32.0392 -83.0589 356° North 369 425 30,000  Level Atlanta Center
02:11PM 32.1436 -83.0700 355° North 369 425 30,000  Level Atlanta Center
02:12PM 32.2500 -83.0786 356° North 369 425 30,000  Level Atlanta Center
02:13PM 32.3544 -83.0872 356° North 374 430 30,000  Level Atlanta Center
02:14PM 32.4611 -83.0983 355° North 374 430 30,000  Level Atlanta Center
02:15PM 32.5675 -83.1097 355° North 374 430 30,000  Level Atlanta Center
02:16PM 32.6761 -83.1183 356° North 374 430 30,000  Level Atlanta Center
02:17PM 32.7806 -83.1272 356° North 374 430 30,000  Level Atlanta Center
02:18PM 32.8850 -83.1361 356° North 374 430 30,000  Level Atlanta Center
02:19PM 32.9936 -83.1447 356° North 379 436 30,000  Level Atlanta Center
02:20PM 33.1003 -83.1586 354° North 386 444 30,000  Level Atlanta Center
02:21PM 33.2047 -83.1700 355° North 381 438 30,000  Level Atlanta Center
02:22PM 33.3111 -83.1789 356° North 392 451 30,000  Level Atlanta Center
02:23PM 33.4197 -83.1875 356° North 387 445 30,000  Level Atlanta Center
02:24PM 33.5242 -83.1967 356° North 382 440 30,000  Level Atlanta Center
02:25PM 33.6286 -83.2056 356° North 382 440 30,000  Level Atlanta Center
02:26PM 33.7372 -83.2144 356° North 382 440 30,000  Level Atlanta Center
02:27PM 33.8500 -83.2283 354° North 382 440 30,000  Level Atlanta Center
02:28PM 33.9606 -83.2372 356° North 389 448 30,000  Level Atlanta Center
02:29PM 34.0672 -83.2464 356° North 389 448 30,000  Level Atlanta Center
02:30PM 34.1736 -83.2581 355° North 389 448 30,000  Level Atlanta Center
02:31PM 34.2803 -83.2644 357° North 382 440 30,000  Level Atlanta Center
02:32PM 34.3867 -83.2761 355° North 382 440 30,000  Level Atlanta Center
02:33PM 34.4933 -83.2878 355° North 387 445 30,000  Level Atlanta Center
02:34PM 34.6017 -83.2969 356° North 387 445 30,000  Level Atlanta Center
02:35PM 34.7061 -83.3111 354° North 387 445 30,000  Level Atlanta Center
02:36PM 34.8169 -83.3178 357° North 387 445 30,000  Level Atlanta Center
02:37PM 34.9233 -83.3294 355° North 387 445 30,000  Level Atlanta Center
02:38PM 35.0319 -83.3411 355° North 387 445 30,000  Level Atlanta Center
02:39PM 35.1406 -83.3481 357° North 387 445 30,000  Level Atlanta Center
02:40PM 35.2492 -83.3647 353° North 387 445 30,000  Level Atlanta Center
02:41PM 35.3556 -83.3742 356° North 387 445 30,000  Level Atlanta Center
02:42PM 35.4642 -83.3833 356° North 387 445 30,000  Level Atlanta Center
02:43PM 35.5706 -83.3953 355° North 387 445 30,000  Level Atlanta Center
02:44PM 35.6750 -83.4047 356° North 387 445 30,000  Level Atlanta Center
02:45PM 35.7814 -83.4167 355° North 387 445 30,000  Level Atlanta Center
02:46PM 35.8900 -83.4261 356° North 387 445 30,000  Level Atlanta Center
02:47PM 35.9964 -83.4383 355° North 387 445 30,000  Level Atlanta Center
02:48PM 36.1028 -83.4450 357° North 387 445 30,000  Level Atlanta Center
02:50PM 36.2444 -83.4606 355° North 379 436 30,000  Level Indianapolis Center
02:51PM 36.3489 -83.4703 356° North 376 433 30,000  Level Indianapolis Center
02:52PM 36.4719 -83.4822 356° North 377 434 30,000  Level Indianapolis Center
02:53PM 36.5781 -83.4919 356° North 379 436 30,000  Level Indianapolis Center
02:54PM 36.6847 -83.5022 356° North 380 437 30,000  Level Indianapolis Center
02:55PM 36.7903 -83.5133 355° North 377 434 30,000  Level Indianapolis Center
02:56PM 36.8953 -83.5244 355° North 375 432 30,000 -60 Level Indianapolis Center
02:57PM 37.0003 -83.5342 356° North 375 432 29,900 -840 Descending Indianapolis Center
03:13PM 38.6711 -83.7089 357° North 327 376 15,900 -900 Descending Indianapolis Center
03:14PM 38.5456 -83.6875 356° North  Level FlightAware Approximate
03:14PM 38.7789 -83.7203 355° North 321 369 14,300  Level Indianapolis Center
03:15PM 38.6383 -83.6959 356° North  Level FlightAware Approximate
03:15PM 38.8628 -83.7300 355° North 306 352 12,900  Level Indianapolis Center
03:16PM 38.7310 -83.7016 355° North  Level FlightAware Approximate
03:16PM 38.9436 -83.7389 355° North 292 336 11,400  Level Indianapolis Center
03:17PM 38.8236 -83.7119 355° North  Level FlightAware Approximate
03:18PM 38.9163 -83.7205 357° North  Level FlightAware Approximate
03:18PM 39.0228 -83.7469 355° North 287 330 10,000  Level Indianapolis Center
03:18PM 39.0508 -83.7519 352° North 284 327 9,500 -1,680 Descending Indianapolis Center
03:18PM 39.0631 -83.7539 353° North 285 328 9,300 -1,260 Descending Indianapolis Center
03:19PM 39.0091 -83.7276 357° North  Level FlightAware Approximate
03:19PM 39.1036 -83.7561 358° North 290 334 8,500  Level Indianapolis Center
03:19PM 39.1442 -83.7625 353° North 297 342 7,800 -1,380 Descending Indianapolis Center
03:20PM 39.1856 -83.7647 358° North 294 338 7,100 -1,500 Descending Indianapolis Center
03:20PM 39.2286 -83.7606 North 288 331 6,300 -1,080 Descending Indianapolis Center
03:21PM 39.2764 -83.7350 22° Northeast 290 334 6,000 -540 Descending Indianapolis Center
03:21PM 39.3025 -83.7164 29° Northeast 295 339 5,800 -1,080 Descending Indianapolis Center
03:22PM 39.3483 -83.6867 27° Northeast 293 337 4,900 -1,440 Descending Indianapolis Center
03:22PM 39.3783 -83.6750 17° North 269 310 4,200 -1,500 Descending Indianapolis Center
03:23PM 39.4164 -83.6542 23° Northeast 277 319 3,400 -1,200 Descending Indianapolis Center
03:23PM 39.4511 -83.6414 16° North 261 300 3,000 -420 Descending Indianapolis Center
03:24PM 39.4844 -83.6258 20° North 267 307 3,000 -60 Level Indianapolis Center
03:25PM 39.5397 -83.6386 350° North 240 276 2,900 -60 Descending Indianapolis Center
03:26PM 39.5381 -83.6911 268° West 201 231 2,900 -180 Level Indianapolis Center
03:27PM 39.5008 -83.7297 219° Southwest 161 185 2,600 -360 Descending Indianapolis Center
03:27PM 39.4942 -83.7353 213° Southwest 115 132 2,500 -840 Descending Indianapolis Center
03:28PM 39.4658 -83.7658 220° Southwest 126 145 1,600 -600 Descending Indianapolis Center
03:29PM 39.4417 -83.7872 214° Southwest 133 153 1,400 -300 Descending Indianapolis Center